createdAt,value
2023-01-17T00:02:11.099Z,97624.38
2023-01-17T00:04:57.527Z,97622.53
2023-01-17T00:07:44.486Z,97623.06
2023-01-17T00:10:17.326Z,97612.41
2023-01-17T00:12:53.038Z,97605.72
2023-01-17T00:15:23.480Z,97615.13
2023-01-17T00:17:51.350Z,97616.22
2023-01-17T00:20:49.110Z,97622.00
2023-01-17T00:23:38.318Z,97618.00
2023-01-17T00:26:10.819Z,97606.53
2023-01-17T00:28:40.009Z,97608.09
2023-01-17T00:31:09.256Z,97606.16
2023-01-17T00:33:37.144Z,97615.00
2023-01-17T00:36:05.564Z,97609.97
2023-01-17T00:38:35.130Z,97618.78
2023-01-17T00:41:06.980Z,97617.41
2023-01-17T00:43:54.045Z,97603.47
2023-01-17T00:46:40.614Z,97605.66
2023-01-17T00:49:27.954Z,97608.47
2023-01-17T00:52:13.928Z,97601.16
2023-01-17T00:55:00.405Z,97609.16
2023-01-17T00:57:46.719Z,97602.50
2023-01-17T01:00:33.357Z,97603.31
2023-01-17T01:03:19.610Z,97612.19
2023-01-17T01:06:06.173Z,97606.03
2023-01-17T01:08:52.036Z,97589.84
2023-01-17T01:11:40.105Z,97593.03
2023-01-17T01:14:28.322Z,97602.44
2023-01-17T01:17:14.777Z,97617.34
2023-01-17T01:20:00.844Z,97619.91
2023-01-17T01:22:47.861Z,97625.75
2023-01-17T01:25:33.876Z,97628.06
2023-01-17T01:28:30.497Z,97628.91
2023-01-17T01:31:20.838Z,97637.78
2023-01-17T01:33:48.793Z,97622.31
2023-01-17T01:36:16.270Z,97635.91
2023-01-17T01:38:43.818Z,97639.66
2023-01-17T01:41:11.817Z,97641.03
2023-01-17T01:43:39.541Z,97627.62
2023-01-17T01:46:07.999Z,97619.22
2023-01-17T01:48:40.525Z,97613.72
2023-01-17T01:51:11.518Z,97607.87
2023-01-17T01:53:43.152Z,97591.53
2023-01-17T01:56:12.957Z,97585.97
2023-01-17T01:58:42.379Z,97576.78
2023-01-17T02:01:10.308Z,97576.13
2023-01-17T02:03:40.357Z,97572.56
2023-01-17T02:06:34.473Z,97571.50
2023-01-17T02:09:06.805Z,97567.50
2023-01-17T02:11:36.586Z,97575.81
2023-01-17T02:14:04.767Z,97573.28
2023-01-17T02:17:00.485Z,97577.19
2023-01-17T02:19:52.932Z,97574.75
2023-01-17T02:22:51.691Z,97572.56
2023-01-17T02:25:37.713Z,97584.97
2023-01-17T02:28:21.114Z,97590.81
2023-01-17T02:30:54.266Z,97574.66
2023-01-17T02:33:29.342Z,97571.28
2023-01-17T02:36:29.448Z,97570.00
2023-01-17T02:39:09.088Z,97567.41
2023-01-17T02:41:42.915Z,97572.75
2023-01-17T02:44:11.750Z,97562.66
2023-01-17T02:46:47.715Z,97556.03
2023-01-17T02:49:16.355Z,97552.34
2023-01-17T02:51:51.146Z,97532.06
2023-01-17T02:54:40.845Z,97525.16
2023-01-17T02:57:26.492Z,97517.78
2023-01-17T03:00:07.281Z,97512.62
2023-01-17T03:02:38.104Z,97513.16
2023-01-17T03:05:10.491Z,97506.94
2023-01-17T03:07:40.111Z,97495.66
2023-01-17T03:10:08.572Z,97495.13
2023-01-17T03:12:37.559Z,97491.09
2023-01-17T03:15:13.692Z,97496.16
2023-01-17T03:17:45.184Z,97485.44
2023-01-17T03:20:13.183Z,97477.84
2023-01-17T03:22:40.552Z,97479.88
2023-01-17T03:25:08.260Z,97484.41
2023-01-17T03:27:36.625Z,97478.47
2023-01-17T03:30:05.128Z,97478.22
2023-01-17T03:32:32.580Z,97466.41
2023-01-17T03:35:00.680Z,97460.12
2023-01-17T03:37:28.235Z,97455.28
2023-01-17T03:39:55.775Z,97458.28
2023-01-17T03:42:24.057Z,97460.00
2023-01-17T03:44:51.465Z,97451.97
2023-01-17T03:47:19.016Z,97452.88
2023-01-17T03:49:46.819Z,97455.37
2023-01-17T03:52:14.354Z,97451.75
2023-01-17T03:54:42.166Z,97447.13
2023-01-17T03:57:09.928Z,97448.63
2023-01-17T03:59:37.323Z,97450.63
2023-01-17T04:02:04.973Z,97450.69
2023-01-17T04:04:32.792Z,97443.62
2023-01-17T04:07:00.311Z,97441.56
2023-01-17T04:09:27.662Z,97450.69
2023-01-17T04:11:55.508Z,97443.06
2023-01-17T04:14:23.022Z,97450.25
2023-01-17T04:16:50.504Z,97440.16
2023-01-17T04:19:18.486Z,97446.59
2023-01-17T04:21:45.833Z,97446.09
2023-01-17T04:24:13.220Z,97450.91
2023-01-17T04:26:41.031Z,97446.84
2023-01-17T04:29:08.398Z,97455.50
2023-01-17T04:31:36.142Z,97450.75
2023-01-17T04:34:03.902Z,97449.59
2023-01-17T04:36:31.589Z,97449.28
2023-01-17T04:38:59.033Z,97451.25
2023-01-17T04:41:27.037Z,97454.78
2023-01-17T04:43:54.608Z,97451.59
2023-01-17T04:46:23.201Z,97448.44
2023-01-17T04:48:50.985Z,97451.78
2023-01-17T04:51:18.481Z,97446.00
2023-01-17T04:53:45.999Z,97455.19
2023-01-17T04:56:13.699Z,97461.09
2023-01-17T04:58:41.245Z,97456.16
2023-01-17T05:01:10.005Z,97453.59
2023-01-17T05:03:37.977Z,97447.59
2023-01-17T05:06:05.615Z,97452.84
2023-01-17T05:08:33.086Z,97455.50
2023-01-17T05:11:00.790Z,97462.00
2023-01-17T05:13:28.279Z,97454.16
2023-01-17T05:15:57.321Z,97463.34
2023-01-17T05:18:25.407Z,97450.66
2023-01-17T05:20:52.980Z,97456.34
2023-01-17T05:23:20.378Z,97458.00
2023-01-17T05:25:48.198Z,97456.31
2023-01-17T05:28:15.782Z,97462.81
2023-01-17T05:30:43.382Z,97473.03
2023-01-17T05:33:11.252Z,97467.00
2023-01-17T05:35:39.125Z,97464.44
2023-01-17T05:38:06.507Z,97464.50
2023-01-17T05:40:35.428Z,97475.56
2023-01-17T05:43:03.891Z,97475.25
2023-01-17T05:45:32.764Z,97480.59
2023-01-17T05:48:01.073Z,97490.06
2023-01-17T05:50:34.501Z,97497.41
2023-01-17T05:53:06.912Z,97504.88
2023-01-17T05:55:34.644Z,97505.31
2023-01-17T05:58:03.419Z,97511.28
2023-01-17T06:00:34.515Z,97510.31
2023-01-17T06:03:02.676Z,97510.91
2023-01-17T06:05:30.191Z,97524.06
2023-01-17T06:07:58.155Z,97531.78
2023-01-17T06:10:26.532Z,97529.69
2023-01-17T06:13:10.455Z,97527.38
2023-01-17T06:15:39.017Z,97529.31
2023-01-17T06:18:12.394Z,97532.91
2023-01-17T06:20:40.648Z,97542.06
2023-01-17T06:23:11.744Z,97548.88
2023-01-17T06:25:41.430Z,97534.28
2023-01-17T06:28:12.474Z,97540.19
2023-01-17T06:30:40.454Z,97538.09
2023-01-17T06:33:08.051Z,97551.94
2023-01-17T06:35:37.669Z,97557.28
2023-01-17T06:38:05.529Z,97560.88
2023-01-17T06:40:33.673Z,97572.97
2023-01-17T06:43:02.125Z,97570.66
2023-01-17T06:45:30.980Z,97576.94
2023-01-17T06:47:59.300Z,97576.13
2023-01-17T06:50:27.303Z,97579.34
2023-01-17T06:52:56.801Z,97585.06
2023-01-17T06:55:25.024Z,97594.19
2023-01-17T06:57:53.736Z,97603.13
2023-01-17T07:00:22.239Z,97603.38
2023-01-17T07:02:53.109Z,97612.16
2023-01-17T07:05:21.904Z,97613.69
2023-01-17T07:07:49.636Z,97622.28
2023-01-17T07:10:21.647Z,97621.69
2023-01-17T07:12:49.990Z,97626.34
2023-01-17T07:15:17.365Z,97623.00
2023-01-17T07:17:44.975Z,97637.44
2023-01-17T07:20:13.639Z,97638.91
2023-01-17T07:22:45.033Z,97639.16
2023-01-17T07:25:13.229Z,97639.00
2023-01-17T07:27:40.815Z,97638.91
2023-01-17T07:30:09.648Z,97655.50
2023-01-17T07:32:37.724Z,97660.13
2023-01-17T07:35:06.312Z,97655.81
2023-01-17T07:37:33.692Z,97663.31
2023-01-17T07:40:03.051Z,97676.03
2023-01-17T07:42:30.591Z,97680.75
2023-01-17T07:44:58.164Z,97687.81
2023-01-17T07:47:25.998Z,97697.88
2023-01-17T07:49:53.503Z,97710.62
2023-01-17T07:52:21.799Z,97706.59
2023-01-17T07:54:49.826Z,97714.41
2023-01-17T07:57:17.752Z,97725.38
2023-01-17T07:59:45.242Z,97716.94
2023-01-17T08:02:18.511Z,97722.09
2023-01-17T08:04:47.126Z,97726.12
2023-01-17T08:07:15.098Z,97729.94
2023-01-17T08:09:43.667Z,97731.34
2023-01-17T08:12:11.980Z,97733.19
2023-01-17T08:14:39.479Z,97736.44
2023-01-17T08:17:09.023Z,97743.41
2023-01-17T08:19:36.850Z,97745.84
2023-01-17T08:22:04.892Z,97746.09
2023-01-17T08:24:32.263Z,97744.81
2023-01-17T08:27:00.457Z,97755.81
2023-01-17T08:29:27.852Z,97754.06
2023-01-17T08:31:55.688Z,97756.03
2023-01-17T08:34:23.359Z,97768.00
2023-01-17T08:36:52.897Z,97765.91
2023-01-17T08:39:21.386Z,97764.75
2023-01-17T08:41:49.592Z,97769.25
2023-01-17T08:44:17.153Z,97773.38
2023-01-17T08:46:44.687Z,97774.94
2023-01-17T08:49:12.824Z,97768.09
2023-01-17T08:51:40.630Z,97769.50
2023-01-17T08:54:11.105Z,97774.59
2023-01-17T08:56:39.429Z,97765.91
2023-01-17T08:59:06.937Z,97764.19
2023-01-17T09:01:40.878Z,97751.22
2023-01-17T09:04:09.442Z,97764.62
2023-01-17T09:06:42.520Z,97761.06
2023-01-17T09:09:11.728Z,97771.38
2023-01-17T09:11:39.435Z,97782.44
2023-01-17T09:14:06.888Z,97780.19
2023-01-17T09:16:34.962Z,97779.56
2023-01-17T09:19:02.392Z,97786.69
2023-01-17T09:21:29.797Z,97784.38
2023-01-17T09:23:57.834Z,97787.91
2023-01-17T09:26:27.627Z,97781.50
2023-01-17T09:28:55.713Z,97788.22
2023-01-17T09:31:24.544Z,97790.97
2023-01-17T09:33:52.946Z,97798.69
2023-01-17T09:36:22.115Z,97806.75
2023-01-17T09:38:56.104Z,97802.12
2023-01-17T09:41:27.647Z,97809.25
2023-01-17T09:44:01.677Z,97820.63
2023-01-17T09:46:31.805Z,97818.03
2023-01-17T09:49:13.085Z,97821.53
2023-01-17T09:51:42.225Z,97824.53
2023-01-17T09:54:22.851Z,97826.88
2023-01-17T09:57:14.940Z,97821.91
2023-01-17T10:00:13.090Z,97832.75
2023-01-17T10:02:59.835Z,97841.12
2023-01-17T10:05:39.517Z,97846.06
2023-01-17T10:08:10.298Z,97851.25
2023-01-17T10:10:47.575Z,97851.06
2023-01-17T10:13:34.577Z,97849.81
2023-01-17T10:16:09.325Z,97854.59
2023-01-17T10:18:59.027Z,97851.25
2023-01-17T10:22:07.615Z,97853.41
2023-01-17T10:24:55.535Z,97842.63
2023-01-17T10:27:25.090Z,97844.56
2023-01-17T10:29:54.196Z,97848.03
2023-01-17T10:32:24.981Z,97844.53
2023-01-17T10:34:53.562Z,97844.69
2023-01-17T10:37:25.768Z,97833.50
2023-01-17T10:39:56.404Z,97826.28
2023-01-17T10:42:33.617Z,97813.63
2023-01-17T10:45:06.139Z,97814.72
2023-01-17T10:47:36.957Z,97802.75
2023-01-17T10:50:05.407Z,97804.56
2023-01-17T10:53:11.779Z,97807.53
2023-01-17T10:55:47.479Z,97809.88
2023-01-17T10:58:15.018Z,97804.75
2023-01-17T11:00:50.451Z,97788.94
2023-01-17T11:03:20.903Z,97781.41
2023-01-17T11:06:17.849Z,97779.66
2023-01-17T11:08:58.514Z,97772.56
2023-01-17T11:11:35.367Z,97760.03
2023-01-17T11:14:15.316Z,97762.59
2023-01-17T11:16:43.424Z,97762.78
2023-01-17T11:19:15.246Z,97766.59
2023-01-17T11:21:52.586Z,97759.38
2023-01-17T11:24:26.261Z,97743.44
2023-01-17T11:26:54.159Z,97742.91
2023-01-17T11:29:28.459Z,97742.34
2023-01-17T11:31:56.541Z,97733.06
2023-01-17T11:34:26.140Z,97728.47
2023-01-17T11:37:29.754Z,97734.00
2023-01-17T11:40:19.578Z,97728.25
2023-01-17T11:42:47.138Z,97714.03
2023-01-17T11:45:26.794Z,97717.62
2023-01-17T11:48:13.169Z,97721.44
2023-01-17T11:50:46.398Z,97733.81
2023-01-17T11:53:26.041Z,97734.50
2023-01-17T11:55:59.587Z,97734.16
2023-01-17T11:58:27.768Z,97744.91
2023-01-17T12:01:02.307Z,97751.25
2023-01-17T12:03:36.956Z,97755.81
2023-01-17T12:06:51.499Z,97762.09
2023-01-17T12:09:34.223Z,97764.66
2023-01-17T12:12:43.029Z,97756.12
2023-01-17T12:15:22.981Z,97762.00
2023-01-17T12:18:14.003Z,97756.78
2023-01-17T12:20:47.778Z,97759.56
2023-01-17T12:23:27.791Z,97754.84
2023-01-17T12:26:27.634Z,97755.69
2023-01-17T12:29:23.285Z,97751.72
2023-01-17T12:32:19.591Z,97753.94
2023-01-17T12:34:56.602Z,97751.28
2023-01-17T12:37:29.677Z,97754.50
2023-01-17T12:40:07.745Z,97752.28
2023-01-17T12:42:38.770Z,97750.06
2023-01-17T12:45:13.900Z,97743.03
2023-01-17T12:47:45.916Z,97744.19
2023-01-17T12:50:28.782Z,97748.12
2023-01-17T12:53:07.076Z,97735.63
2023-01-17T12:55:46.471Z,97739.47
2023-01-17T12:58:23.974Z,97744.56
2023-01-17T13:00:59.490Z,97747.16
2023-01-17T13:03:42.543Z,97747.41
2023-01-17T13:06:20.613Z,97735.88
2023-01-17T13:08:51.000Z,97731.84
2023-01-17T13:11:25.663Z,97735.09
2023-01-17T13:13:57.339Z,97732.13
2023-01-17T13:16:32.402Z,97742.94
2023-01-17T13:19:11.520Z,97754.81
2023-01-17T13:21:39.364Z,97754.94
2023-01-17T13:24:24.290Z,97756.88
2023-01-17T13:27:27.205Z,97742.00
2023-01-17T13:30:34.639Z,97755.59
2023-01-17T13:33:40.139Z,97743.94
2023-01-17T13:36:39.187Z,97740.19
2023-01-17T13:39:34.260Z,97734.66
2023-01-17T13:42:34.942Z,97730.34
2023-01-17T13:45:08.208Z,97724.56
2023-01-17T13:47:38.935Z,97716.44
2023-01-17T13:50:38.193Z,97722.09
2023-01-17T13:53:34.376Z,97727.59
2023-01-17T13:56:14.393Z,97711.72
2023-01-17T13:58:45.299Z,97702.62
2023-01-17T14:01:13.155Z,97695.66
2023-01-17T14:03:50.266Z,97700.56
2023-01-17T14:06:33.021Z,97693.38
2023-01-17T14:09:11.136Z,97672.25
2023-01-17T14:11:58.829Z,97666.59
2023-01-17T14:14:41.835Z,97664.34
2023-01-17T14:17:28.426Z,97657.00
2023-01-17T14:20:01.695Z,97644.56
2023-01-17T14:22:41.593Z,97645.56
2023-01-17T14:25:09.926Z,97649.97
2023-01-17T14:27:47.577Z,97645.41
2023-01-17T14:30:36.640Z,97633.28
2023-01-17T14:33:27.769Z,97626.31
2023-01-17T14:36:01.561Z,97626.28
2023-01-17T14:38:31.881Z,97614.19
2023-01-17T14:41:02.885Z,97617.13
2023-01-17T14:43:33.019Z,97614.91
2023-01-17T14:46:04.467Z,97620.66
2023-01-17T14:48:31.960Z,97620.38
2023-01-17T14:51:00.402Z,97600.81
2023-01-17T14:53:29.911Z,97590.88
2023-01-17T14:56:02.885Z,97590.00
2023-01-17T14:58:32.889Z,97591.69
2023-01-17T15:01:09.562Z,97592.84
2023-01-17T15:03:49.927Z,97601.28
2023-01-17T15:06:20.770Z,97603.91
2023-01-17T15:08:49.267Z,97605.69
2023-01-17T15:11:23.592Z,97603.94
2023-01-17T15:13:54.857Z,97605.22
2023-01-17T15:16:28.164Z,97602.38
2023-01-17T15:18:57.538Z,97609.72
2023-01-17T15:21:28.269Z,97597.59
2023-01-17T15:24:01.601Z,97590.47
2023-01-17T15:26:33.474Z,97592.22
2023-01-17T15:29:06.221Z,97587.53
2023-01-17T15:32:40.217Z,97588.59
2023-01-17T15:35:40.262Z,97584.37
2023-01-17T15:38:39.073Z,97574.44
2023-01-17T15:44:46.412Z,97575.22
2023-01-17T15:47:31.268Z,97575.06
2023-01-17T15:49:59.994Z,97565.28
2023-01-17T15:52:28.398Z,97567.19
2023-01-17T15:55:00.456Z,97554.97
2023-01-17T15:57:37.119Z,97550.59
2023-01-17T16:00:16.117Z,97539.25
2023-01-17T16:02:50.075Z,97543.03
2023-01-17T16:05:24.406Z,97528.22
2023-01-17T16:08:01.769Z,97531.34
2023-01-17T16:10:35.659Z,97530.56
2023-01-17T16:13:08.636Z,97532.63
2023-01-17T16:15:41.386Z,97535.25
2023-01-17T16:18:25.865Z,97535.84
2023-01-17T16:21:01.120Z,97539.84
2023-01-17T16:23:28.928Z,97529.91
2023-01-17T16:25:56.530Z,97525.47
2023-01-17T16:28:23.955Z,97522.34
2023-01-17T16:30:54.222Z,97515.56
2023-01-17T16:33:21.841Z,97504.62
2023-01-17T16:35:53.171Z,97515.38
2023-01-17T16:38:25.441Z,97517.66
2023-01-17T16:40:55.896Z,97522.34
2023-01-17T16:43:23.686Z,97508.37
2023-01-17T16:45:53.940Z,97496.94
2023-01-17T16:48:22.278Z,97493.63
2023-01-17T16:50:52.373Z,97494.47
2023-01-17T16:53:33.201Z,97491.69
2023-01-17T16:56:09.392Z,97479.09
2023-01-17T16:58:36.864Z,97488.56
2023-01-17T17:01:17.748Z,97494.00
2023-01-17T17:03:45.655Z,97485.28
2023-01-17T17:06:13.946Z,97486.31
2023-01-17T17:08:43.160Z,97494.75
2023-01-17T17:11:16.609Z,97475.75
2023-01-17T17:13:46.276Z,97470.47
2023-01-17T17:16:20.506Z,97471.06
2023-01-17T17:18:55.498Z,97460.72
2023-01-17T17:21:23.097Z,97458.56
2023-01-17T17:23:57.132Z,97456.06
2023-01-17T17:26:26.901Z,97450.03
2023-01-17T17:28:55.016Z,97437.97
2023-01-17T17:31:22.812Z,97441.38
2023-01-17T17:33:50.296Z,97436.59
2023-01-17T17:36:18.215Z,97427.25
2023-01-17T17:38:52.066Z,97429.56
2023-01-17T17:41:22.438Z,97428.84
2023-01-17T17:43:52.218Z,97423.22
2023-01-17T17:46:21.916Z,97402.13
2023-01-17T17:48:50.185Z,97405.47
2023-01-17T17:51:35.885Z,97399.94
2023-01-17T17:54:11.762Z,97386.56
2023-01-17T17:56:39.958Z,97378.56
2023-01-17T17:59:09.154Z,97375.19
2023-01-17T18:01:38.383Z,97355.72
2023-01-17T18:04:07.750Z,97335.69
2023-01-17T18:06:35.706Z,97333.84
2023-01-17T18:09:03.684Z,97334.53
2023-01-17T18:11:31.850Z,97328.31
2023-01-17T18:14:02.095Z,97316.97
2023-01-17T18:16:41.781Z,97316.78
2023-01-17T18:19:16.535Z,97305.03
2023-01-17T18:21:44.499Z,97300.06
2023-01-17T18:24:17.744Z,97300.50
2023-01-17T18:26:53.101Z,97292.69
2023-01-17T18:29:22.848Z,97281.38
2023-01-17T18:31:50.850Z,97289.50
2023-01-17T18:34:23.685Z,97288.09
2023-01-17T18:36:52.084Z,97272.00
2023-01-17T18:39:26.033Z,97267.75
2023-01-17T18:41:54.400Z,97252.62
2023-01-17T18:44:22.732Z,97255.72
2023-01-17T18:46:51.114Z,97261.47
2023-01-17T18:49:21.809Z,97259.72
2023-01-17T18:51:51.241Z,97255.31
2023-01-17T18:54:20.131Z,97240.84
2023-01-17T18:56:47.963Z,97231.78
2023-01-17T18:59:18.286Z,97232.66
2023-01-17T19:01:46.465Z,97221.13
2023-01-17T19:04:15.975Z,97220.16
2023-01-17T19:06:46.297Z,97209.69
2023-01-17T19:09:17.393Z,97203.16
2023-01-17T19:11:47.471Z,97195.44
2023-01-17T19:14:15.954Z,97197.59
2023-01-17T19:16:43.603Z,97196.00
2023-01-17T19:19:15.313Z,97192.12
2023-01-17T19:21:43.380Z,97173.69
2023-01-17T19:24:13.157Z,97192.50
2023-01-17T19:26:41.719Z,97172.59
2023-01-17T19:29:09.592Z,97164.00
2023-01-17T19:31:43.360Z,97149.41
2023-01-17T19:34:14.178Z,97146.84
2023-01-17T19:36:41.892Z,97143.25
2023-01-17T19:39:09.952Z,97138.81
2023-01-17T19:41:42.009Z,97117.56
2023-01-17T19:44:11.846Z,97104.09
2023-01-17T19:46:40.494Z,97098.06
2023-01-17T19:49:09.315Z,97083.66
2023-01-17T19:51:37.165Z,97072.06
2023-01-17T19:54:08.376Z,97067.41
2023-01-17T19:56:36.823Z,97069.66
2023-01-17T19:59:05.151Z,97062.91
2023-01-17T20:01:34.576Z,97075.03
2023-01-17T20:04:04.306Z,97079.28
2023-01-17T20:06:34.020Z,97078.94
2023-01-17T20:09:02.111Z,97079.59
2023-01-17T20:11:30.421Z,97065.13
2023-01-17T20:13:58.906Z,97077.03
2023-01-17T20:16:29.848Z,97069.75
2023-01-17T20:19:02.499Z,97086.94
2023-01-17T20:21:31.095Z,97080.44
2023-01-17T20:23:59.948Z,97084.44
2023-01-17T20:26:35.025Z,97085.31
2023-01-17T20:29:10.135Z,97076.66
2023-01-17T20:31:39.301Z,97071.56
2023-01-17T20:34:08.427Z,97062.88
2023-01-17T20:36:37.044Z,97057.06
2023-01-17T20:39:06.281Z,97049.66
2023-01-17T20:41:37.021Z,97044.28
2023-01-17T20:44:06.412Z,97053.66
2023-01-17T20:46:40.461Z,97073.44
2023-01-17T20:49:18.825Z,97042.00
2023-01-17T20:51:47.298Z,97034.91
2023-01-17T20:54:16.941Z,97025.12
2023-01-17T20:56:47.576Z,97015.81
2023-01-17T20:59:17.914Z,97005.59
2023-01-17T21:01:45.613Z,97005.78
2023-01-17T21:04:16.893Z,97003.28
2023-01-17T21:06:44.538Z,96994.28
2023-01-17T21:09:14.808Z,96984.16
2023-01-17T21:11:43.498Z,96969.94
2023-01-17T21:14:11.132Z,96963.88
2023-01-17T21:16:39.705Z,96959.56
2023-01-17T21:19:12.098Z,96959.31
2023-01-17T21:21:39.917Z,96959.19
2023-01-17T21:24:07.966Z,96950.28
2023-01-17T21:26:38.263Z,96942.97
2023-01-17T21:29:05.814Z,96918.91
2023-01-17T21:31:35.641Z,96932.31
2023-01-17T21:34:05.821Z,96928.31
2023-01-17T21:36:37.137Z,96910.94
2023-01-17T21:39:13.565Z,96920.53
2023-01-17T21:41:43.556Z,96912.69
2023-01-17T21:44:22.140Z,96918.22
2023-01-17T21:46:54.210Z,96930.31
2023-01-17T21:49:23.524Z,96919.13
2023-01-17T21:51:54.292Z,96917.25
2023-01-17T21:54:49.962Z,96930.94
2023-01-17T21:57:38.896Z,96932.41
2023-01-17T22:00:09.484Z,96919.19
2023-01-17T22:02:40.011Z,96914.66
2023-01-17T22:05:08.943Z,96925.97
2023-01-17T22:07:38.967Z,96909.16
2023-01-17T22:10:06.982Z,96907.69
2023-01-17T22:12:34.829Z,96906.78
2023-01-17T22:15:02.827Z,96899.22
2023-01-17T22:17:30.731Z,96900.59
2023-01-17T22:19:58.601Z,96898.22
2023-01-17T22:22:25.990Z,96898.44
2023-01-17T22:24:53.559Z,96882.53
2023-01-17T22:27:21.729Z,96874.41
2023-01-17T22:29:50.396Z,96891.72
2023-01-17T22:32:17.881Z,96900.63
2023-01-17T22:34:45.771Z,96906.16
2023-01-17T22:37:13.160Z,96901.13
2023-01-17T22:39:41.217Z,96911.63
2023-01-17T22:42:10.105Z,96929.56
2023-01-17T22:44:37.549Z,96935.28
2023-01-17T22:47:05.707Z,96934.56
2023-01-17T22:49:33.472Z,96930.53
2023-01-17T22:52:00.846Z,96917.25
2023-01-17T22:54:29.447Z,96917.28
2023-01-17T22:56:57.332Z,96920.84
2023-01-17T22:59:25.128Z,96916.19
2023-01-17T23:01:53.750Z,96925.28
2023-01-17T23:04:21.450Z,96930.63
2023-01-17T23:06:48.869Z,96950.06
2023-01-17T23:09:17.257Z,96956.16
2023-01-17T23:11:52.055Z,96945.19
2023-01-17T23:14:31.153Z,96955.22
2023-01-17T23:17:20.049Z,96963.94
2023-01-17T23:19:49.324Z,96959.19
2023-01-17T23:22:19.542Z,96964.78
2023-01-17T23:24:52.401Z,96974.72
2023-01-17T23:27:46.179Z,96962.50
2023-01-17T23:30:18.757Z,96983.53
2023-01-17T23:32:48.924Z,96976.38
2023-01-17T23:35:17.953Z,96972.06
2023-01-17T23:38:04.603Z,96971.78
2023-01-17T23:40:33.121Z,96956.41
2023-01-17T23:43:19.582Z,96947.66
2023-01-17T23:45:47.528Z,96959.16
2023-01-17T23:48:15.689Z,96959.00
2023-01-17T23:50:45.314Z,96974.91
2023-01-17T23:53:21.841Z,96967.75
2023-01-17T23:55:51.746Z,96986.97
2023-01-17T23:58:22.953Z,96986.88
